Lakenheath Air Base, United Kingdom

1:34 AM BST on August 22, 2017 (GMT +0100)
Liberty Village | | Change Station

Elev 33 ft 52.39 °N, 0.54 °E | Updated 7 seconds ago

Overcast
Overcast
62.1 °F
Feels Like 62.1 °F
N
2.0
Wind Variable Wind from SSW
Gusts 2.5 mph

Today
High -- | Low -- °F
--% Chance of Precip.
Yesterday
High -- | Low -- °F
Precip. -- in
Pressure 30.15 in
Visibility 6.2 miles
Clouds Overcast 2800 ft
Dew Point 57 °F
Humidity 83%
Rainfall 0.00 in
Snow Depth Not available.
5:52 AM 8:07 PM
New Moon, 0% visible
METAR EGUL 212358Z AUTO 14004KT 9999 OVC028 17/16 A3014 RMK AO2 SLP209 T01660164 10188 20165 401950111 56005
Pressure 30.15 in
Visibility 6.2 miles
Clouds Overcast 2800 ft
Dew Point 57 °F
Humidity 83%
Rainfall 0.00 in
Snow Depth Not available.
5:52 AM 8:07 PM
New Moon, 0% visible
METAR EGUL 212358Z AUTO 14004KT 9999 OVC028 17/16 A3014 RMK AO2 SLP209 T01660164 10188 20165 401950111 56005

Get Severe Weather Alerts

Thanks for signing up!

Be on the lookout for a verification email in your inbox.

You'll start receiving the daily forecast at 6 AM.

×

10-Day Weather Forecast

×

Almanac

Astronomy

Aug. 22, 2017 Rise Set
Actual Time
Civil Twilight
Nautical Twilight
Astronomical Twilight
Moon
Length of Visible Light
Length of Day
Tomorrow will be .
, % of the Moon is Illuminated

Today's Extremes

Country Highs Country Lows

Community

WunderPhotos

Category 6

Welcome to Category 6. This is the collective home for Weather Underground's featured writeups by Dr. Jeff Masters (right), Bob Henson (left), Chris Burt, and other regular contributors.

Nearby

Air Quality

  Air Quality AQ Index Pollutant
Not available.

Snow Depth

Station Depth Elevation

Earthquake Activity

City Distance Mag. Time & Date
Minimum magnitude displayed is 2.5.

Coastal Water Temperatures

Place Temperature

Stations

Nearby Weather Stations

Station Location Temp. Windchill Dew Point Humidity Wind Precip. Elev Updated Type